sensor_id;sensor_type;location;lat;lon;timestamp;temperature;humidity
63051;SHT30;49136;47.416;19.402;2023-10-13T00:01:42;13.71;99.99
63051;SHT30;49136;47.416;19.402;2023-10-13T00:04:08;13.68;99.99
63051;SHT30;49136;47.416;19.402;2023-10-13T00:06:34;13.66;99.99
63051;SHT30;49136;47.416;19.402;2023-10-13T00:08:59;13.62;99.99
63051;SHT30;49136;47.416;19.402;2023-10-13T00:11:25;13.62;99.99
63051;SHT30;49136;47.416;19.402;2023-10-13T00:13:52;13.61;99.99
63051;SHT30;49136;47.416;19.402;2023-10-13T00:16:20;13.62;99.99
63051;SHT30;49136;47.416;19.402;2023-10-13T00:18:54;13.59;99.99
63051;SHT30;49136;47.416;19.402;2023-10-13T00:21:25;13.58;99.99
63051;SHT30;49136;47.416;19.402;2023-10-13T00:23:58;13.53;99.99
63051;SHT30;49136;47.416;19.402;2023-10-13T00:26:29;13.54;99.99
63051;SHT30;49136;47.416;19.402;2023-10-13T00:28:56;13.50;99.99
63051;SHT30;49136;47.416;19.402;2023-10-13T00:31:41;13.45;99.99
63051;SHT30;49136;47.416;19.402;2023-10-13T00:34:13;13.40;99.99
63051;SHT30;49136;47.416;19.402;2023-10-13T00:36:59;13.30;99.99
63051;SHT30;49136;47.416;19.402;2023-10-13T00:39:37;13.24;99.99
63051;SHT30;49136;47.416;19.402;2023-10-13T00:42:05;13.20;99.99
63051;SHT30;49136;47.416;19.402;2023-10-13T00:44:43;13.20;99.99
63051;SHT30;49136;47.416;19.402;2023-10-13T00:47:13;13.17;99.99
63051;SHT30;49136;47.416;19.402;2023-10-13T00:49:47;13.19;99.99
63051;SHT30;49136;47.416;19.402;2023-10-13T00:52:14;13.14;99.99
63051;SHT30;49136;47.416;19.402;2023-10-13T00:54:41;13.20;99.99
63051;SHT30;49136;47.416;19.402;2023-10-13T00:57:13;13.10;99.99
63051;SHT30;49136;47.416;19.402;2023-10-13T01:00:00;13.09;99.99
63051;SHT30;49136;47.416;19.402;2023-10-13T01:02:37;13.19;99.99
63051;SHT30;49136;47.416;19.402;2023-10-13T01:05:07;13.20;99.99
63051;SHT30;49136;47.416;19.402;2023-10-13T01:07:37;13.17;99.99
63051;SHT30;49136;47.416;19.402;2023-10-13T01:10:10;13.33;99.99
63051;SHT30;49136;47.416;19.402;2023-10-13T01:12:40;13.26;99.99
63051;SHT30;49136;47.416;19.402;2023-10-13T01:15:11;13.20;99.99
63051;SHT30;49136;47.416;19.402;2023-10-13T01:17:38;13.16;99.99
63051;SHT30;49136;47.416;19.402;2023-10-13T01:20:04;13.14;99.99
63051;SHT30;49136;47.416;19.402;2023-10-13T01:22:30;13.12;99.99
63051;SHT30;49136;47.416;19.402;2023-10-13T01:24:57;13.09;99.99
63051;SHT30;49136;47.416;19.402;2023-10-13T01:27:36;13.07;99.99
63051;SHT30;49136;47.416;19.402;2023-10-13T01:30:03;13.12;99.99
63051;SHT30;49136;47.416;19.402;2023-10-13T01:32:34;13.09;99.99
63051;SHT30;49136;47.416;19.402;2023-10-13T01:35:06;13.04;99.99
63051;SHT30;49136;47.416;19.402;2023-10-13T01:37:32;13.06;99.99
63051;SHT30;49136;47.416;19.402;2023-10-13T01:39:57;13.04;99.99
63051;SHT30;49136;47.416;19.402;2023-10-13T01:42:23;13.03;99.99
63051;SHT30;49136;47.416;19.402;2023-10-13T01:44:50;13.10;99.99
63051;SHT30;49136;47.416;19.402;2023-10-13T01:47:15;13.09;99.99
63051;SHT30;49136;47.416;19.402;2023-10-13T01:49:45;13.10;99.99
63051;SHT30;49136;47.416;19.402;2023-10-13T01:52:15;13.07;99.99
63051;SHT30;49136;47.416;19.402;2023-10-13T01:54:45;13.10;99.99
63051;SHT30;49136;47.416;19.402;2023-10-13T01:57:11;13.07;99.99
63051;SHT30;49136;47.416;19.402;2023-10-13T01:59:47;13.06;99.99
63051;SHT30;49136;47.416;19.402;2023-10-13T02:02:13;13.07;99.99
63051;SHT30;49136;47.416;19.402;2023-10-13T02:04:39;13.12;99.99
63051;SHT30;49136;47.416;19.402;2023-10-13T02:07:16;13.09;99.99
63051;SHT30;49136;47.416;19.402;2023-10-13T02:09:42;13.20;99.99
63051;SHT30;49136;47.416;19.402;2023-10-13T02:12:08;13.12;99.99
63051;SHT30;49136;47.416;19.402;2023-10-13T02:14:35;13.12;99.99
63051;SHT30;49136;47.416;19.402;2023-10-13T02:17:02;13.09;99.99
63051;SHT30;49136;47.416;19.402;2023-10-13T02:19:42;13.10;99.99
63051;SHT30;49136;47.416;19.402;2023-10-13T02:22:12;13.12;99.99
63051;SHT30;49136;47.416;19.402;2023-10-13T02:24:49;13.07;99.99
63051;SHT30;49136;47.416;19.402;2023-10-13T02:27:17;13.10;99.99
63051;SHT30;49136;47.416;19.402;2023-10-13T02:29:42;13.10;99.99
63051;SHT30;49136;47.416;19.402;2023-10-13T02:32:11;13.13;99.99
63051;SHT30;49136;47.416;19.402;2023-10-13T02:34:46;13.14;99.99
63051;SHT30;49136;47.416;19.402;2023-10-13T02:37:11;13.21;99.99
63051;SHT30;49136;47.416;19.402;2023-10-13T02:39:38;13.20;99.99
63051;SHT30;49136;47.416;19.402;2023-10-13T02:42:07;13.21;99.99
63051;SHT30;49136;47.416;19.402;2023-10-13T02:44:33;13.34;99.99
63051;SHT30;49136;47.416;19.402;2023-10-13T02:47:02;13.28;99.99
63051;SHT30;49136;47.416;19.402;2023-10-13T02:49:31;13.24;99.99
63051;SHT30;49136;47.416;19.402;2023-10-13T02:52:00;13.21;99.99
63051;SHT30;49136;47.416;19.402;2023-10-13T02:54:30;13.19;99.99
63051;SHT30;49136;47.416;19.402;2023-10-13T02:56:57;13.14;99.99
63051;SHT30;49136;47.416;19.402;2023-10-13T02:59:26;13.14;99.99
63051;SHT30;49136;47.416;19.402;2023-10-13T03:02:12;13.17;99.99
63051;SHT30;49136;47.416;19.402;2023-10-13T03:04:56;13.19;99.99
63051;SHT30;49136;47.416;19.402;2023-10-13T03:07:25;13.16;99.99
63051;SHT30;49136;47.416;19.402;2023-10-13T03:09:54;13.20;99.99
63051;SHT30;49136;47.416;19.402;2023-10-13T03:12:23;13.17;99.99
63051;SHT30;49136;47.416;19.402;2023-10-13T03:14:50;13.24;99.99
63051;SHT30;49136;47.416;19.402;2023-10-13T03:17:42;13.27;99.99
63051;SHT30;49136;47.416;19.402;2023-10-13T03:20:14;13.28;99.99
63051;SHT30;49136;47.416;19.402;2023-10-13T03:22:43;13.33;99.99
63051;SHT30;49136;47.416;19.402;2023-10-13T03:25:12;13.34;99.99
63051;SHT30;49136;47.416;19.402;2023-10-13T03:27:53;13.38;99.99
63051;SHT30;49136;47.416;19.402;2023-10-13T03:30:19;13.37;99.99
63051;SHT30;49136;47.416;19.402;2023-10-13T03:32:46;13.34;99.99
63051;SHT30;49136;47.416;19.402;2023-10-13T03:35:14;13.34;99.99
63051;SHT30;49136;47.416;19.402;2023-10-13T03:37:53;13.47;99.99
63051;SHT30;49136;47.416;19.402;2023-10-13T03:40:20;13.43;99.99
63051;SHT30;49136;47.416;19.402;2023-10-13T03:42:49;13.51;99.99
63051;SHT30;49136;47.416;19.402;2023-10-13T03:45:25;13.57;99.99
63051;SHT30;49136;47.416;19.402;2023-10-13T03:47:51;13.72;99.99
63051;SHT30;49136;47.416;19.402;2023-10-13T03:50:17;13.71;99.99
63051;SHT30;49136;47.416;19.402;2023-10-13T03:52:55;13.66;99.99
63051;SHT30;49136;47.416;19.402;2023-10-13T03:55:23;13.64;99.99
63051;SHT30;49136;47.416;19.402;2023-10-13T03:57:55;13.62;99.99
63051;SHT30;49136;47.416;19.402;2023-10-13T04:00:21;13.64;99.99
63051;SHT30;49136;47.416;19.402;2023-10-13T04:02:50;13.62;99.99
63051;SHT30;49136;47.416;19.402;2023-10-13T04:05:28;13.64;99.99
63051;SHT30;49136;47.416;19.402;2023-10-13T04:08:14;13.69;99.99
63051;SHT30;49136;47.416;19.402;2023-10-13T04:10:55;13.78;99.99
63051;SHT30;49136;47.416;19.402;2023-10-13T04:13:21;14.05;99.99
63051;SHT30;49136;47.416;19.402;2023-10-13T04:15:52;14.03;99.99
63051;SHT30;49136;47.416;19.402;2023-10-13T04:18:37;13.99;99.99
63051;SHT30;49136;47.416;19.402;2023-10-13T04:21:34;13.97;99.99
63051;SHT30;49136;47.416;19.402;2023-10-13T04:24:22;13.95;99.99
63051;SHT30;49136;47.416;19.402;2023-10-13T04:27:23;13.96;99.99
63051;SHT30;49136;47.416;19.402;2023-10-13T04:30:06;14.00;99.99
63051;SHT30;49136;47.416;19.402;2023-10-13T04:32:34;14.10;99.99
63051;SHT30;49136;47.416;19.402;2023-10-13T04:35:31;14.35;99.99
63051;SHT30;49136;47.416;19.402;2023-10-13T04:38:03;14.38;99.99
63051;SHT30;49136;47.416;19.402;2023-10-13T04:40:43;14.34;99.99
63051;SHT30;49136;47.416;19.402;2023-10-13T04:43:27;14.35;99.99
63051;SHT30;49136;47.416;19.402;2023-10-13T04:46:10;14.35;99.99
63051;SHT30;49136;47.416;19.402;2023-10-13T04:48:54;14.35;99.99
63051;SHT30;49136;47.416;19.402;2023-10-13T04:51:25;14.38;99.99
63051;SHT30;49136;47.416;19.402;2023-10-13T04:54:15;14.46;99.99
63051;SHT30;49136;47.416;19.402;2023-10-13T04:56:51;14.51;99.99
63051;SHT30;49136;47.416;19.402;2023-10-13T04:59:39;14.58;99.99
63051;SHT30;49136;47.416;19.402;2023-10-13T05:02:25;14.59;99.99
63051;SHT30;49136;47.416;19.402;2023-10-13T05:05:03;14.58;99.99
63051;SHT30;49136;47.416;19.402;2023-10-13T05:07:32;14.59;99.99
63051;SHT30;49136;47.416;19.402;2023-10-13T05:10:17;14.54;99.99
63051;SHT30;49136;47.416;19.402;2023-10-13T05:13:01;14.59;99.99
63051;SHT30;49136;47.416;19.402;2023-10-13T05:15:50;14.65;99.99
63051;SHT30;49136;47.416;19.402;2023-10-13T05:18:34;14.61;99.99
63051;SHT30;49136;47.416;19.402;2023-10-13T05:21:18;14.58;99.99
63051;SHT30;49136;47.416;19.402;2023-10-13T05:24:03;14.62;99.99
63051;SHT30;49136;47.416;19.402;2023-10-13T05:26:47;14.58;99.99
63051;SHT30;49136;47.416;19.402;2023-10-13T05:29:31;14.65;99.99
63051;SHT30;49136;47.416;19.402;2023-10-13T05:32:15;14.62;99.99
63051;SHT30;49136;47.416;19.402;2023-10-13T05:34:59;14.62;99.99
63051;SHT30;49136;47.416;19.402;2023-10-13T05:37:43;14.68;99.99
63051;SHT30;49136;47.416;19.402;2023-10-13T05:40:28;14.69;99.99
63051;SHT30;49136;47.416;19.402;2023-10-13T05:43:12;14.76;99.99
63051;SHT30;49136;47.416;19.402;2023-10-13T05:46:02;14.75;99.99
63051;SHT30;49136;47.416;19.402;2023-10-13T05:48:46;14.72;99.99
63051;SHT30;49136;47.416;19.402;2023-10-13T05:51:24;14.73;99.99
63051;SHT30;49136;47.416;19.402;2023-10-13T05:53:59;14.76;99.99
63051;SHT30;49136;47.416;19.402;2023-10-13T05:56:40;14.77;99.99
63051;SHT30;49136;47.416;19.402;2023-10-13T05:59:25;14.76;99.99
63051;SHT30;49136;47.416;19.402;2023-10-13T06:02:09;14.77;99.99
63051;SHT30;49136;47.416;19.402;2023-10-13T06:04:52;14.80;99.99
63051;SHT30;49136;47.416;19.402;2023-10-13T06:07:37;14.84;99.99
63051;SHT30;49136;47.416;19.402;2023-10-13T06:10:20;14.83;99.99
63051;SHT30;49136;47.416;19.402;2023-10-13T06:13:04;14.89;99.99
63051;SHT30;49136;47.416;19.402;2023-10-13T06:15:48;14.93;99.99
63051;SHT30;49136;47.416;19.402;2023-10-13T06:18:32;14.91;99.99
63051;SHT30;49136;47.416;19.402;2023-10-13T06:21:16;14.90;99.99
63051;SHT30;49136;47.416;19.402;2023-10-13T06:24:00;14.91;99.99
63051;SHT30;49136;47.416;19.402;2023-10-13T06:26:47;14.96;99.99
63051;SHT30;49136;47.416;19.402;2023-10-13T06:29:31;15.07;99.99
63051;SHT30;49136;47.416;19.402;2023-10-13T06:31:57;15.17;99.99
63051;SHT30;49136;47.416;19.402;2023-10-13T06:34:23;15.31;99.99
63051;SHT30;49136;47.416;19.402;2023-10-13T06:37:04;15.43;99.99
63051;SHT30;49136;47.416;19.402;2023-10-13T06:39:48;15.53;99.99
63051;SHT30;49136;47.416;19.402;2023-10-13T06:42:13;15.58;99.99
63051;SHT30;49136;47.416;19.402;2023-10-13T06:44:40;15.60;99.99
63051;SHT30;49136;47.416;19.402;2023-10-13T06:47:10;15.58;99.99
63051;SHT30;49136;47.416;19.402;2023-10-13T06:49:37;15.52;99.99
63051;SHT30;49136;47.416;19.402;2023-10-13T06:52:05;15.48;99.99
63051;SHT30;49136;47.416;19.402;2023-10-13T06:54:32;15.48;99.99
63051;SHT30;49136;47.416;19.402;2023-10-13T06:57:01;15.49;99.99
63051;SHT30;49136;47.416;19.402;2023-10-13T06:59:29;15.53;99.99
63051;SHT30;49136;47.416;19.402;2023-10-13T07:01:58;15.48;99.99
63051;SHT30;49136;47.416;19.402;2023-10-13T07:04:29;15.46;99.99
63051;SHT30;49136;47.416;19.402;2023-10-13T07:06:55;15.43;99.99
63051;SHT30;49136;47.416;19.402;2023-10-13T07:09:20;15.42;99.99
63051;SHT30;49136;47.416;19.402;2023-10-13T07:12:15;15.42;99.99
63051;SHT30;49136;47.416;19.402;2023-10-13T07:14:48;15.39;99.99
63051;SHT30;49136;47.416;19.402;2023-10-13T07:17:17;15.49;99.99
63051;SHT30;49136;47.416;19.402;2023-10-13T07:19:52;15.55;99.99
63051;SHT30;49136;47.416;19.402;2023-10-13T07:22:43;15.60;99.99
63051;SHT30;49136;47.416;19.402;2023-10-13T07:25:23;15.62;99.99
63051;SHT30;49136;47.416;19.402;2023-10-13T07:27:50;15.53;99.99
63051;SHT30;49136;47.416;19.402;2023-10-13T07:30:17;15.50;99.99
63051;SHT30;49136;47.416;19.402;2023-10-13T07:32:46;15.53;99.99
63051;SHT30;49136;47.416;19.402;2023-10-13T07:35:16;15.56;99.99
63051;SHT30;49136;47.416;19.402;2023-10-13T07:37:43;15.59;99.99
63051;SHT30;49136;47.416;19.402;2023-10-13T07:40:10;15.56;99.99
63051;SHT30;49136;47.416;19.402;2023-10-13T07:42:51;15.59;99.99
63051;SHT30;49136;47.416;19.402;2023-10-13T07:45:16;15.62;99.99
63051;SHT30;49136;47.416;19.402;2023-10-13T07:47:50;15.70;99.99
63051;SHT30;49136;47.416;19.402;2023-10-13T07:50:16;15.83;99.99
63051;SHT30;49136;47.416;19.402;2023-10-13T07:52:50;15.91;99.99
63051;SHT30;49136;47.416;19.402;2023-10-13T07:55:31;16.00;99.99
63051;SHT30;49136;47.416;19.402;2023-10-13T07:57:59;16.08;99.99
63051;SHT30;49136;47.416;19.402;2023-10-13T08:00:26;16.15;99.99
63051;SHT30;49136;47.416;19.402;2023-10-13T08:03:18;16.15;99.99
63051;SHT30;49136;47.416;19.402;2023-10-13T08:06:00;16.36;99.99
63051;SHT30;49136;47.416;19.402;2023-10-13T08:08:32;16.57;99.75
63051;SHT30;49136;47.416;19.402;2023-10-13T08:11:06;16.70;99.06
63051;SHT30;49136;47.416;19.402;2023-10-13T08:13:58;16.77;98.80
63051;SHT30;49136;47.416;19.402;2023-10-13T08:16:36;16.85;98.19
63051;SHT30;49136;47.416;19.402;2023-10-13T08:19:29;16.94;98.33
63051;SHT30;49136;47.416;19.402;2023-10-13T08:22:23;16.96;97.58
63051;SHT30;49136;47.416;19.402;2023-10-13T08:24:53;17.00;97.54
63051;SHT30;49136;47.416;19.402;2023-10-13T08:27:20;17.08;98.05
63051;SHT30;49136;47.416;19.402;2023-10-13T08:29:58;17.12;97.27
63051;SHT30;49136;47.416;19.402;2023-10-13T08:32:29;17.32;97.12
63051;SHT30;49136;47.416;19.402;2023-10-13T08:34:59;17.46;96.74
63051;SHT30;49136;47.416;19.402;2023-10-13T08:37:34;17.67;96.19
63051;SHT30;49136;47.416;19.402;2023-10-13T08:40:22;17.87;95.44
63051;SHT30;49136;47.416;19.402;2023-10-13T08:43:10;17.79;94.26
63051;SHT30;49136;47.416;19.402;2023-10-13T08:45:40;18.10;94.86
63051;SHT30;49136;47.416;19.402;2023-10-13T08:48:12;18.19;94.11
63051;SHT30;49136;47.416;19.402;2023-10-13T08:50:42;18.34;93.49
63051;SHT30;49136;47.416;19.402;2023-10-13T08:56:10;18.60;92.63
63051;SHT30;49136;47.416;19.402;2023-10-13T08:58:43;18.82;92.46
63051;SHT30;49136;47.416;19.402;2023-10-13T09:01:21;18.96;91.32
63051;SHT30;49136;47.416;19.402;2023-10-13T09:04:09;18.92;91.13
63051;SHT30;49136;47.416;19.402;2023-10-13T09:06:44;19.07;90.58
63051;SHT30;49136;47.416;19.402;2023-10-13T09:09:30;19.33;90.83
63051;SHT30;49136;47.416;19.402;2023-10-13T09:14:43;19.19;88.48
63051;SHT30;49136;47.416;19.402;2023-10-13T09:17:23;19.17;89.43
63051;SHT30;49136;47.416;19.402;2023-10-13T09:20:06;19.16;89.83
63051;SHT30;49136;47.416;19.402;2023-10-13T09:22:54;19.38;89.84
63051;SHT30;49136;47.416;19.402;2023-10-13T09:25:37;19.34;90.18
63051;SHT30;49136;47.416;19.402;2023-10-13T09:28:15;19.44;89.48
63051;SHT30;49136;47.416;19.402;2023-10-13T09:30:44;19.54;89.74
63051;SHT30;49136;47.416;19.402;2023-10-13T09:33:09;19.58;89.69
63051;SHT30;49136;47.416;19.402;2023-10-13T09:35:43;19.62;89.58
63051;SHT30;49136;47.416;19.402;2023-10-13T09:38:10;19.78;90.07
63051;SHT30;49136;47.416;19.402;2023-10-13T09:40:58;20.10;89.47
63051;SHT30;49136;47.416;19.402;2023-10-13T09:46:47;20.56;86.95
63051;SHT30;49136;47.416;19.402;2023-10-13T09:49:29;20.75;86.72
63051;SHT30;49136;47.416;19.402;2023-10-13T09:52:28;20.56;87.26
63051;SHT30;49136;47.416;19.402;2023-10-13T09:55:11;20.61;87.09
63051;SHT30;49136;47.416;19.402;2023-10-13T09:58:17;20.72;87.72
63051;SHT30;49136;47.416;19.402;2023-10-13T10:01:07;20.82;86.92
63051;SHT30;49136;47.416;19.402;2023-10-13T10:03:50;20.79;86.94
63051;SHT30;49136;47.416;19.402;2023-10-13T10:06:41;21.01;86.29
63051;SHT30;49136;47.416;19.402;2023-10-13T10:09:55;21.52;85.29
63051;SHT30;49136;47.416;19.402;2023-10-13T10:13:00;21.70;84.31
63051;SHT30;49136;47.416;19.402;2023-10-13T10:15:35;22.04;83.24
63051;SHT30;49136;47.416;19.402;2023-10-13T10:18:22;22.27;81.78
63051;SHT30;49136;47.416;19.402;2023-10-13T10:20:48;22.81;81.40
63051;SHT30;49136;47.416;19.402;2023-10-13T10:23:29;23.19;80.10
63051;SHT30;49136;47.416;19.402;2023-10-13T10:26:12;23.50;78.93
63051;SHT30;49136;47.416;19.402;2023-10-13T10:28:43;23.63;77.89
63051;SHT30;49136;47.416;19.402;2023-10-13T10:31:10;23.55;77.81
63051;SHT30;49136;47.416;19.402;2023-10-13T10:33:39;23.50;77.92
63051;SHT30;49136;47.416;19.402;2023-10-13T10:36:05;23.63;78.08
63051;SHT30;49136;47.416;19.402;2023-10-13T10:38:31;23.73;77.79
63051;SHT30;49136;47.416;19.402;2023-10-13T10:41:05;24.02;76.93
63051;SHT30;49136;47.416;19.402;2023-10-13T10:48:36;24.66;75.84
63051;SHT30;49136;47.416;19.402;2023-10-13T10:51:03;24.81;74.25
63051;SHT30;49136;47.416;19.402;2023-10-13T10:53:34;24.90;74.27
63051;SHT30;49136;47.416;19.402;2023-10-13T10:56:10;25.09;74.10
63051;SHT30;49136;47.416;19.402;2023-10-13T10:58:57;25.20;73.59
63051;SHT30;49136;47.416;19.402;2023-10-13T11:01:28;25.18;73.58
63051;SHT30;49136;47.416;19.402;2023-10-13T11:04:05;25.34;73.51
63051;SHT30;49136;47.416;19.402;2023-10-13T11:06:37;25.51;72.68
63051;SHT30;49136;47.416;19.402;2023-10-13T11:09:12;25.56;72.44
63051;SHT30;49136;47.416;19.402;2023-10-13T11:11:53;25.73;72.45
63051;SHT30;49136;47.416;19.402;2023-10-13T11:14:26;25.66;72.61
63051;SHT30;49136;47.416;19.402;2023-10-13T11:16:53;25.57;72.16
63051;SHT30;49136;47.416;19.402;2023-10-13T11:19:40;25.32;72.13
63051;SHT30;49136;47.416;19.402;2023-10-13T11:22:22;25.26;72.65
63051;SHT30;49136;47.416;19.402;2023-10-13T11:25:08;25.56;72.26
63051;SHT30;49136;47.416;19.402;2023-10-13T11:27:41;25.80;71.88
63051;SHT30;49136;47.416;19.402;2023-10-13T11:30:19;25.84;71.30
63051;SHT30;49136;47.416;19.402;2023-10-13T11:33:09;25.82;72.38
63051;SHT30;49136;47.416;19.402;2023-10-13T11:35:36;25.74;72.75
63051;SHT30;49136;47.416;19.402;2023-10-13T11:38:30;25.74;72.76
63051;SHT30;49136;47.416;19.402;2023-10-13T11:41:08;25.71;72.50
63051;SHT30;49136;47.416;19.402;2023-10-13T11:43:49;25.71;72.27
63051;SHT30;49136;47.416;19.402;2023-10-13T11:46:26;25.81;72.65
63051;SHT30;49136;47.416;19.402;2023-10-13T11:49:09;25.85;72.65
63051;SHT30;49136;47.416;19.402;2023-10-13T11:51:44;25.92;72.81
63051;SHT30;49136;47.416;19.402;2023-10-13T11:54:11;25.99;72.12
63051;SHT30;49136;47.416;19.402;2023-10-13T11:56:37;26.17;72.00
63051;SHT30;49136;47.416;19.402;2023-10-13T11:59:04;26.32;70.93
63051;SHT30;49136;47.416;19.402;2023-10-13T12:01:31;26.44;70.49
63051;SHT30;49136;47.416;19.402;2023-10-13T12:04:15;26.45;71.64
63051;SHT30;49136;47.416;19.402;2023-10-13T12:06:58;26.39;70.86
63051;SHT30;49136;47.416;19.402;2023-10-13T12:09:43;26.41;70.37
63051;SHT30;49136;47.416;19.402;2023-10-13T12:12:26;26.36;71.01
63051;SHT30;49136;47.416;19.402;2023-10-13T12:14:53;26.33;70.55
63051;SHT30;49136;47.416;19.402;2023-10-13T12:17:20;26.22;70.45
63051;SHT30;49136;47.416;19.402;2023-10-13T12:19:54;26.13;70.35
63051;SHT30;49136;47.416;19.402;2023-10-13T12:22:20;26.23;69.77
63051;SHT30;49136;47.416;19.402;2023-10-13T12:25:06;26.17;70.04
63051;SHT30;49136;47.416;19.402;2023-10-13T12:27:52;26.09;70.44
63051;SHT30;49136;47.416;19.402;2023-10-13T12:30:21;26.15;70.53
63051;SHT30;49136;47.416;19.402;2023-10-13T12:33:22;26.16;70.08
63051;SHT30;49136;47.416;19.402;2023-10-13T12:36:01;26.09;69.58
63051;SHT30;49136;47.416;19.402;2023-10-13T12:38:39;26.05;70.40
63051;SHT30;49136;47.416;19.402;2023-10-13T12:41:11;26.09;70.26
63051;SHT30;49136;47.416;19.402;2023-10-13T12:43:55;26.10;68.77
63051;SHT30;49136;47.416;19.402;2023-10-13T12:46:39;26.16;69.37
63051;SHT30;49136;47.416;19.402;2023-10-13T12:49:23;26.09;69.41
63051;SHT30;49136;47.416;19.402;2023-10-13T12:52:07;26.01;69.83
63051;SHT30;49136;47.416;19.402;2023-10-13T12:54:48;25.93;70.10
63051;SHT30;49136;47.416;19.402;2023-10-13T12:57:40;25.91;69.63
63051;SHT30;49136;47.416;19.402;2023-10-13T13:00:10;25.92;69.77
63051;SHT30;49136;47.416;19.402;2023-10-13T13:02:42;25.95;70.62
63051;SHT30;49136;47.416;19.402;2023-10-13T13:05:07;25.95;69.61
63051;SHT30;49136;47.416;19.402;2023-10-13T13:07:37;26.12;70.30
63051;SHT30;49136;47.416;19.402;2023-10-13T13:10:18;26.39;70.47
63051;SHT30;49136;47.416;19.402;2023-10-13T13:12:44;26.51;70.06
63051;SHT30;49136;47.416;19.402;2023-10-13T13:15:10;26.57;69.35
63051;SHT30;49136;47.416;19.402;2023-10-13T13:17:38;26.84;68.93
63051;SHT30;49136;47.416;19.402;2023-10-13T13:20:07;27.13;68.32
63051;SHT30;49136;47.416;19.402;2023-10-13T13:22:40;27.30;67.02
63051;SHT30;49136;47.416;19.402;2023-10-13T13:25:05;27.33;66.36
63051;SHT30;49136;47.416;19.402;2023-10-13T13:27:35;27.41;65.92
63051;SHT30;49136;47.416;19.402;2023-10-13T13:30:03;27.57;66.92
63051;SHT30;49136;47.416;19.402;2023-10-13T13:32:37;27.95;63.99
63051;SHT30;49136;47.416;19.402;2023-10-13T13:35:03;28.11;63.57
63051;SHT30;49136;47.416;19.402;2023-10-13T13:37:32;28.17;64.13
63051;SHT30;49136;47.416;19.402;2023-10-13T13:39:58;28.28;63.50
63051;SHT30;49136;47.416;19.402;2023-10-13T13:42:39;28.47;62.17
63051;SHT30;49136;47.416;19.402;2023-10-13T13:45:11;28.43;62.74
63051;SHT30;49136;47.416;19.402;2023-10-13T13:47:37;28.47;62.65
63051;SHT30;49136;47.416;19.402;2023-10-13T13:50:02;28.43;60.94
63051;SHT30;49136;47.416;19.402;2023-10-13T13:52:39;28.27;61.82
63051;SHT30;49136;47.416;19.402;2023-10-13T13:55:11;28.25;61.09
63051;SHT30;49136;47.416;19.402;2023-10-13T13:57:43;28.22;61.20
63051;SHT30;49136;47.416;19.402;2023-10-13T14:00:12;28.24;62.29
63051;SHT30;49136;47.416;19.402;2023-10-13T14:02:42;28.40;62.34
63051;SHT30;49136;47.416;19.402;2023-10-13T14:05:13;28.36;62.22
63051;SHT30;49136;47.416;19.402;2023-10-13T14:07:44;28.30;61.90
63051;SHT30;49136;47.416;19.402;2023-10-13T14:10:18;28.30;58.64
63051;SHT30;49136;47.416;19.402;2023-10-13T14:13:00;28.17;57.78
63051;SHT30;49136;47.416;19.402;2023-10-13T14:15:35;28.18;58.01
63051;SHT30;49136;47.416;19.402;2023-10-13T14:18:08;28.14;57.89
63051;SHT30;49136;47.416;19.402;2023-10-13T14:20:40;28.11;57.53
63051;SHT30;49136;47.416;19.402;2023-10-13T14:23:07;28.04;59.33
63051;SHT30;49136;47.416;19.402;2023-10-13T14:25:35;27.89;60.88
63051;SHT30;49136;47.416;19.402;2023-10-13T14:28:06;27.66;57.81
63051;SHT30;49136;47.416;19.402;2023-10-13T14:30:33;27.51;58.15
63051;SHT30;49136;47.416;19.402;2023-10-13T14:32:58;27.33;57.85
63051;SHT30;49136;47.416;19.402;2023-10-13T14:35:25;27.16;58.32
63051;SHT30;49136;47.416;19.402;2023-10-13T14:37:52;26.93;59.60
63051;SHT30;49136;47.416;19.402;2023-10-13T14:40:17;26.88;59.36
63051;SHT30;49136;47.416;19.402;2023-10-13T14:42:47;26.75;60.08
63051;SHT30;49136;47.416;19.402;2023-10-13T14:45:13;26.61;60.38
63051;SHT30;49136;47.416;19.402;2023-10-13T14:47:42;26.50;60.81
63051;SHT30;49136;47.416;19.402;2023-10-13T14:50:08;26.39;61.23
63051;SHT30;49136;47.416;19.402;2023-10-13T14:52:39;26.34;60.92
63051;SHT30;49136;47.416;19.402;2023-10-13T14:55:05;26.08;62.36
63051;SHT30;49136;47.416;19.402;2023-10-13T14:57:32;26.02;61.65
63051;SHT30;49136;47.416;19.402;2023-10-13T15:00:03;25.92;61.60
63051;SHT30;49136;47.416;19.402;2023-10-13T15:02:38;25.77;62.15
63051;SHT30;49136;47.416;19.402;2023-10-13T15:05:04;25.64;61.75
63051;SHT30;49136;47.416;19.402;2023-10-13T15:07:29;25.53;62.62
63051;SHT30;49136;47.416;19.402;2023-10-13T15:09:55;25.37;62.80
63051;SHT30;49136;47.416;19.402;2023-10-13T15:12:22;25.22;63.56
63051;SHT30;49136;47.416;19.402;2023-10-13T15:14:47;25.06;63.95
63051;SHT30;49136;47.416;19.402;2023-10-13T15:17:13;24.67;67.87
63051;SHT30;49136;47.416;19.402;2023-10-13T15:19:41;24.25;70.34
63051;SHT30;49136;47.416;19.402;2023-10-13T15:22:08;23.75;71.29
63051;SHT30;49136;47.416;19.402;2023-10-13T15:24:46;23.28;73.50
63051;SHT30;49136;47.416;19.402;2023-10-13T15:27:25;22.91;74.75
63051;SHT30;49136;47.416;19.402;2023-10-13T15:29:54;22.60;76.19
63051;SHT30;49136;47.416;19.402;2023-10-13T15:32:19;22.25;77.53
63051;SHT30;49136;47.416;19.402;2023-10-13T15:35:03;22.00;78.15
63051;SHT30;49136;47.416;19.402;2023-10-13T15:37:29;21.77;78.55
63051;SHT30;49136;47.416;19.402;2023-10-13T15:39:54;21.59;78.80
63051;SHT30;49136;47.416;19.402;2023-10-13T15:42:20;21.39;80.07
63051;SHT30;49136;47.416;19.402;2023-10-13T15:44:46;21.23;80.69
63051;SHT30;49136;47.416;19.402;2023-10-13T15:47:11;21.06;80.72
63051;SHT30;49136;47.416;19.402;2023-10-13T15:49:37;20.86;81.93
63051;SHT30;49136;47.416;19.402;2023-10-13T15:52:07;20.72;83.06
63051;SHT30;49136;47.416;19.402;2023-10-13T15:54:32;20.58;82.98
63051;SHT30;49136;47.416;19.402;2023-10-13T15:57:00;20.47;83.71
63051;SHT30;49136;47.416;19.402;2023-10-13T15:59:26;20.24;84.34
63051;SHT30;49136;47.416;19.402;2023-10-13T16:01:51;20.05;85.29
63051;SHT30;49136;47.416;19.402;2023-10-13T16:04:23;19.93;85.16
63051;SHT30;49136;47.416;19.402;2023-10-13T16:06:48;19.75;85.17
63051;SHT30;49136;47.416;19.402;2023-10-13T16:09:19;19.61;86.69
63051;SHT30;49136;47.416;19.402;2023-10-13T16:11:49;19.47;86.25
63051;SHT30;49136;47.416;19.402;2023-10-13T16:14:14;19.35;85.89